createdAt,value
2016-09-12T13:24:05.363Z,1008.07
2016-09-12T13:26:08.321Z,1008.07
2016-09-12T13:27:05.985Z,1008.05
2016-09-12T13:29:05.437Z,1008.02
2016-09-12T13:30:06.187Z,1008.03
2016-09-12T13:31:05.235Z,1008.03
2016-09-12T13:32:05.841Z,1008
2016-09-12T13:33:05.983Z,1007.97
2016-09-12T13:35:05.100Z,1008.01
2016-09-12T13:36:05.083Z,1008.01
2016-09-12T13:37:05.101Z,1008.02
2016-09-12T13:38:05.434Z,1008.02
2016-09-12T13:39:05.006Z,1007.96
2016-09-12T13:41:05.337Z,1007.97
2016-09-12T13:42:04.965Z,1007.92
2016-09-12T13:43:04.970Z,1007.93
2016-09-12T13:44:04.961Z,1007.95
2016-09-12T13:45:07.262Z,1007.94
2016-09-12T13:46:04.891Z,1007.92
2016-09-12T13:47:04.989Z,1007.91
2016-09-12T13:48:05.052Z,1007.92
2016-09-12T13:53:16.392Z,1007.93
2016-09-12T13:54:16.092Z,1007.95
2016-09-12T13:55:14.688Z,1007.94
2016-09-12T13:56:14.719Z,1007.94
2016-09-12T13:57:16.996Z,1007.9
2016-09-12T13:59:14.595Z,1007.88
2016-09-12T14:01:14.976Z,1007.86
2016-09-12T14:02:14.934Z,1007.83
2016-09-12T14:06:36.303Z,1007.86
2016-09-12T14:07:35.060Z,1007.79
2016-09-12T14:08:34.847Z,1007.8
2016-09-12T14:10:34.785Z,1007.85
2016-09-12T14:11:35.112Z,1007.83
2016-09-12T14:13:35.624Z,1007.79
2016-09-12T14:14:34.724Z,1007.8
2016-09-12T14:15:34.703Z,1007.81
2016-09-12T14:16:34.697Z,1007.78
2016-09-12T14:17:34.832Z,1007.79
2016-09-12T14:20:34.712Z,1007.71
2016-09-12T14:22:35.131Z,1007.76
2016-09-12T14:24:34.527Z,1007.72
2016-09-12T14:26:34.529Z,1007.68
2016-09-12T14:27:34.490Z,1007.7
2016-09-12T14:28:34.486Z,1007.69
2016-09-12T14:31:34.430Z,1007.68
2016-09-12T14:32:34.856Z,1007.69
2016-09-12T14:34:34.375Z,1007.69
2016-09-12T14:35:34.594Z,1007.68
2016-09-12T14:37:42.788Z,1007.66
2016-09-12T14:39:42.792Z,1007.66
2016-09-12T14:40:42.795Z,1007.65
2016-09-12T14:41:43.034Z,1007.62
2016-09-12T14:43:56.607Z,1007.64
2016-09-12T14:44:56.215Z,1007.63
2016-09-12T14:45:56.291Z,1007.67
2016-09-12T14:46:56.020Z,1007.63
2016-09-12T14:47:55.895Z,1007.65
2016-09-12T14:49:55.887Z,1007.6
2016-09-12T14:51:55.807Z,1007.64
2016-09-12T14:52:56.247Z,1007.6
2016-09-12T14:53:55.857Z,1007.63
2016-09-12T14:54:56.065Z,1007.63
2016-09-12T14:55:55.797Z,1007.64
2016-09-12T14:56:55.949Z,1007.64
2016-09-12T14:57:55.807Z,1007.62
2016-09-12T14:59:55.999Z,1007.62
2016-09-12T15:00:57.014Z,1007.64
2016-09-12T15:03:04.335Z,1007.63
2016-09-12T15:05:04.537Z,1007.61
2016-09-12T15:06:04.367Z,1007.63
2016-09-12T15:07:04.040Z,1007.6
2016-09-12T15:08:04.057Z,1007.62
2016-09-12T15:09:04.550Z,1007.62
2016-09-12T15:10:06.150Z,1007.62
2016-09-12T15:12:04.520Z,1007.6
2016-09-12T15:14:04.059Z,1007.62
2016-09-12T15:15:03.892Z,1007.61
2016-09-12T15:16:03.878Z,1007.62
2016-09-12T15:17:04.334Z,1007.63
2016-09-12T15:18:03.811Z,1007.64
2016-09-12T15:19:03.787Z,1007.62
2016-09-12T15:21:03.770Z,1007.62
2016-09-12T15:22:03.776Z,1007.6
2016-09-12T15:23:03.733Z,1007.59
2016-09-12T15:25:03.673Z,1007.55
2016-09-12T15:26:03.806Z,1007.59
2016-09-12T15:28:04.526Z,1007.59
2016-09-12T15:29:04.228Z,1007.59
2016-09-12T15:32:06.522Z,1007.61
2016-09-12T15:34:04.533Z,1007.58
2016-09-12T15:35:03.776Z,1007.54
2016-09-12T15:36:03.812Z,1007.53
2016-09-12T15:37:04.331Z,1007.52
2016-09-12T15:38:03.620Z,1007.55
2016-09-12T15:39:03.487Z,1007.56
2016-09-12T15:41:03.444Z,1007.57
2016-09-12T15:42:04.254Z,1007.54
2016-09-12T15:44:03.332Z,1007.54
2016-09-12T15:46:03.331Z,1007.54
2016-09-12T15:47:03.235Z,1007.5
2016-09-12T15:49:03.265Z,1007.51
2016-09-12T15:50:03.578Z,1007.5
2016-09-12T15:52:05.537Z,1007.49
2016-09-12T15:53:03.175Z,1007.47
2016-09-12T15:54:03.442Z,1007.48
2016-09-12T15:55:03.055Z,1007.45
2016-09-12T15:56:03.067Z,1007.45
2016-09-12T15:57:03.209Z,1007.45
2016-09-12T16:00:03.292Z,1007.43
2016-09-12T16:01:04.559Z,1007.43
2016-09-12T16:02:02.994Z,1007.43
2016-09-12T16:03:03.225Z,1007.43
2016-09-12T16:04:03.437Z,1007.4
2016-09-12T16:05:02.932Z,1007.41
2016-09-12T16:06:03.332Z,1007.42
2016-09-12T16:07:02.948Z,1007.38
2016-09-12T16:09:03.001Z,1007.39
2016-09-12T16:11:03.299Z,1007.36
2016-09-12T16:12:02.718Z,1007.38
2016-09-12T16:13:05.046Z,1007.37
2016-09-12T16:14:02.694Z,1007.4
2016-09-12T16:15:02.783Z,1007.39
2016-09-12T16:16:02.636Z,1007.4
2016-09-12T16:17:02.596Z,1007.42
2016-09-12T16:19:03.966Z,1007.43
2016-09-12T16:20:02.603Z,1007.44
2016-09-12T16:21:02.748Z,1007.46
2016-09-12T16:23:02.471Z,1007.48
2016-09-12T16:25:02.482Z,1007.47
2016-09-12T16:26:02.429Z,1007.46
2016-09-12T16:27:02.375Z,1007.49
2016-09-12T16:28:02.581Z,1007.46
2016-09-12T16:30:03.384Z,1007.47
2016-09-12T16:33:02.314Z,1007.48
2016-09-12T16:35:02.346Z,1007.48
2016-09-12T16:36:02.226Z,1007.47
2016-09-12T16:37:03.030Z,1007.46
2016-09-12T16:38:02.881Z,1007.47
2016-09-12T16:39:02.240Z,1007.46
2016-09-12T16:40:02.217Z,1007.46
2016-09-12T16:41:02.318Z,1007.46
2016-09-12T16:42:02.106Z,1007.46
2016-09-12T16:43:08.610Z,1007.45
2016-09-12T16:44:02.691Z,1007.49
2016-09-12T16:45:02.023Z,1007.46
2016-09-12T16:46:02.808Z,1007.49
2016-09-12T16:47:03.416Z,1007.47
2016-09-12T16:51:01.896Z,1007.45
2016-09-12T16:52:01.856Z,1007.45
2016-09-12T16:53:01.859Z,1007.43
2016-09-12T16:56:01.793Z,1007.44
2016-09-12T16:57:01.761Z,1007.46
2016-09-12T16:59:01.723Z,1007.45
2016-09-12T17:01:01.719Z,1007.45
2016-09-12T17:02:01.650Z,1007.46
2016-09-12T17:03:04.522Z,1007.47
2016-09-12T17:04:04.588Z,1007.52
2016-09-12T17:05:01.574Z,1007.48
2016-09-12T17:06:01.660Z,1007.49
2016-09-12T17:07:02.714Z,1007.49
2016-09-12T17:09:01.797Z,1007.47
2016-09-12T17:10:01.457Z,1007.44
2016-09-12T17:11:01.961Z,1007.48
2016-09-12T17:15:01.634Z,1007.4
2016-09-12T17:17:02.424Z,1007.41
2016-09-12T17:18:01.316Z,1007.41
2016-09-12T17:19:01.298Z,1007.43
2016-09-12T17:20:01.257Z,1007.41
2016-09-12T17:21:01.295Z,1007.42
2016-09-12T17:22:01.616Z,1007.43
2016-09-12T17:24:01.373Z,1007.42
2016-09-12T17:25:01.174Z,1007.41
2016-09-12T17:28:09.655Z,1007.41
2016-09-12T17:29:09.730Z,1007.4
2016-09-12T17:30:13.511Z,1007.42
2016-09-12T17:31:09.500Z,1007.46
2016-09-12T17:33:09.776Z,1007.46
2016-09-12T17:34:09.438Z,1007.42
2016-09-12T17:36:09.366Z,1007.45
2016-09-12T17:37:09.992Z,1007.47
2016-09-12T17:38:09.356Z,1007.44
2016-09-12T17:40:09.288Z,1007.45
2016-09-12T17:41:09.673Z,1007.46
2016-09-12T17:42:10.263Z,1007.44
2016-09-12T17:43:09.280Z,1007.47
2016-09-12T17:44:09.347Z,1007.45
2016-09-12T17:46:09.202Z,1007.44
2016-09-12T17:48:09.166Z,1007.4
2016-09-12T17:50:09.136Z,1007.45
2016-09-12T17:51:09.709Z,1007.46
2016-09-12T17:52:09.067Z,1007.42
2016-09-12T17:53:09.021Z,1007.45
2016-09-12T17:54:09.061Z,1007.45
2016-09-12T17:55:10.776Z,1007.45
2016-09-12T17:56:10.214Z,1007.46
2016-09-12T17:57:09.777Z,1007.49
2016-09-12T17:58:09.005Z,1007.45
2016-09-12T17:59:08.899Z,1007.48
2016-09-12T18:01:08.933Z,1007.48
2016-09-12T18:02:08.800Z,1007.49
2016-09-12T18:03:08.855Z,1007.52
2016-09-12T18:04:09.091Z,1007.51
2016-09-12T18:05:08.778Z,1007.53
2016-09-12T18:07:18.147Z,1007.58
2016-09-12T18:08:17.473Z,1007.55
2016-09-12T18:09:17.148Z,1007.61
2016-09-12T18:10:17.345Z,1007.62
2016-09-12T18:11:17.113Z,1007.59
2016-09-12T18:12:18.920Z,1007.62
2016-09-12T18:13:17.241Z,1007.64
2016-09-12T18:14:17.087Z,1007.67
2016-09-12T18:15:17.526Z,1007.67
2016-09-12T18:17:17.064Z,1007.7
2016-09-12T18:18:17.241Z,1007.69
2016-09-12T18:20:16.902Z,1007.72
2016-09-12T18:21:16.905Z,1007.72
2016-09-12T18:22:16.868Z,1007.75
2016-09-12T18:23:16.906Z,1007.72
2016-09-12T18:24:16.838Z,1007.76
2016-09-12T18:25:16.821Z,1007.76
2016-09-12T18:26:17.240Z,1007.75
2016-09-12T18:28:26.024Z,1007.75
2016-09-12T18:29:26.017Z,1007.74
2016-09-12T18:32:36.839Z,1007.72
2016-09-12T18:33:34.481Z,1007.76
2016-09-12T18:34:34.468Z,1007.7
2016-09-12T18:35:34.474Z,1007.72
2016-09-12T18:36:34.765Z,1007.7
2016-09-12T18:39:34.908Z,1007.73
2016-09-12T18:40:35.721Z,1007.73
2016-09-12T18:41:35.159Z,1007.74
2016-09-12T18:42:35.253Z,1007.76
2016-09-12T18:44:54.806Z,1007.76
2016-09-12T18:45:54.775Z,1007.77
2016-09-12T18:47:54.788Z,1007.78
2016-09-12T18:50:54.688Z,1007.8
2016-09-12T18:51:54.652Z,1007.82
2016-09-12T18:54:54.593Z,1007.82
2016-09-12T18:55:54.927Z,1007.82
2016-09-12T18:56:54.727Z,1007.83
2016-09-12T18:57:55.690Z,1007.84
2016-09-12T18:58:57.993Z,1007.85
2016-09-12T18:59:55.716Z,1007.82
2016-09-12T19:00:55.081Z,1007.9
2016-09-12T19:01:55.051Z,1007.85
2016-09-12T19:02:56.581Z,1007.88
2016-09-12T19:03:55.221Z,1007.83
2016-09-12T19:04:54.391Z,1007.87
2016-09-12T19:05:56.037Z,1007.86
2016-09-12T19:06:54.371Z,1007.9
2016-09-12T19:07:54.633Z,1007.87
2016-09-12T19:08:54.294Z,1007.88
2016-09-12T19:09:54.344Z,1007.83
2016-09-12T19:11:54.400Z,1007.88
2016-09-12T19:15:54.368Z,1007.85
2016-09-12T19:17:54.121Z,1007.86
2016-09-12T19:18:54.091Z,1007.84
2016-09-12T19:19:54.709Z,1007.82
2016-09-12T19:20:54.089Z,1007.84
2016-09-12T19:22:54.005Z,1007.85
2016-09-12T19:24:54.940Z,1007.86
2016-09-12T19:25:54.144Z,1007.91
2016-09-12T19:26:56.197Z,1007.86
2016-09-12T19:27:53.986Z,1007.82
2016-09-12T19:28:53.893Z,1007.83
2016-09-12T19:31:53.829Z,1007.86
2016-09-12T19:32:53.803Z,1007.87
2016-09-12T19:33:53.767Z,1007.85
2016-09-12T19:35:53.742Z,1007.84
2016-09-12T19:36:54.161Z,1007.85
2016-09-12T19:37:53.681Z,1007.85
2016-09-12T19:38:54.125Z,1007.83
2016-09-12T19:39:54.512Z,1007.83
2016-09-12T19:40:53.615Z,1007.87
2016-09-12T19:41:53.604Z,1007.87
2016-09-12T19:44:54.023Z,1007.89
2016-09-12T19:45:53.897Z,1007.89
2016-09-12T19:46:53.569Z,1007.88
2016-09-12T19:47:53.923Z,1007.95
2016-09-12T19:48:53.471Z,1007.9
2016-09-12T19:49:54.090Z,1007.93
2016-09-12T19:50:53.425Z,1007.95
2016-09-12T19:51:53.469Z,1007.92
2016-09-12T19:52:53.415Z,1007.92
2016-09-12T19:54:53.409Z,1007.97
2016-09-12T19:55:53.450Z,1007.97
2016-09-12T19:57:54.021Z,1008
2016-09-12T19:58:53.520Z,1007.94
2016-09-12T19:59:53.240Z,1007.96
2016-09-12T20:00:54.677Z,1008
2016-09-12T20:01:53.421Z,1007.98
2016-09-12T20:02:53.167Z,1007.97
2016-09-12T20:03:54.621Z,1007.98
2016-09-12T20:04:53.163Z,1007.98
2016-09-12T20:05:53.207Z,1007.99
2016-09-12T20:06:53.085Z,1008
2016-09-12T20:07:53.806Z,1008.02
2016-09-12T20:08:53.323Z,1008.04
2016-09-12T20:09:53.018Z,1008.03
2016-09-12T20:13:53.316Z,1008.06
2016-09-12T20:14:52.918Z,1008.08
2016-09-12T20:15:52.874Z,1008.09
2016-09-12T20:16:52.856Z,1008.11
2016-09-12T20:17:52.869Z,1008.1
2016-09-12T20:18:52.831Z,1008.08
2016-09-12T20:19:52.895Z,1008.14
2016-09-12T20:22:52.783Z,1008.11
2016-09-12T20:23:54.393Z,1008.12
2016-09-12T20:24:52.745Z,1008.11
2016-09-12T20:25:52.743Z,1008.11
2016-09-12T20:26:52.947Z,1008.08
2016-09-12T20:27:52.622Z,1008.1
2016-09-12T20:28:52.709Z,1008.11
2016-09-12T20:29:53.261Z,1008.13
2016-09-12T20:30:52.978Z,1008.14
2016-09-12T20:32:52.555Z,1008.13
2016-09-12T20:33:52.996Z,1008.16
2016-09-12T20:37:53.185Z,1008.13
2016-09-12T20:39:52.369Z,1008.11
2016-09-12T20:40:53.369Z,1008.15
2016-09-12T20:41:52.721Z,1008.08
2016-09-12T20:42:52.295Z,1008.14
2016-09-12T20:43:52.301Z,1008.11
2016-09-12T20:44:52.433Z,1008.12
2016-09-12T20:45:53.012Z,1008.14
2016-09-12T20:46:52.214Z,1008.11
2016-09-12T20:47:52.198Z,1008.08
2016-09-12T20:48:52.167Z,1008.09
2016-09-12T20:49:52.149Z,1008.1
2016-09-12T20:50:52.142Z,1008.08
2016-09-12T20:51:52.153Z,1008.06
2016-09-12T20:52:52.121Z,1008.05
2016-09-12T20:53:52.192Z,1008.03
2016-09-12T20:56:52.004Z,1008.01
2016-09-12T20:57:51.985Z,1008.01
2016-09-12T20:59:52.037Z,1008
2016-09-12T21:00:52.418Z,1008
2016-09-12T21:02:52.635Z,1008.03
2016-09-12T21:03:52.036Z,1008.02
2016-09-12T21:04:51.817Z,1008.03
2016-09-12T21:05:51.812Z,1008
2016-09-12T21:06:51.796Z,1008.01
2016-09-12T21:07:51.975Z,1008.04
2016-09-12T21:08:52.343Z,1008.01
2016-09-12T21:09:51.739Z,1008.02
2016-09-12T21:10:51.697Z,1008.03
2016-09-12T21:11:51.838Z,1008.03
2016-09-12T21:12:52.016Z,1008.06
2016-09-12T21:15:51.622Z,1008.07
2016-09-12T21:17:51.832Z,1008.1
2016-09-12T21:18:51.703Z,1008.09
2016-09-12T21:19:51.525Z,1008.08
2016-09-12T21:20:51.494Z,1008.11
2016-09-12T21:21:52.112Z,1008.09
2016-09-12T21:22:51.447Z,1008.1
2016-09-12T21:23:51.466Z,1008.07
2016-09-12T21:24:51.407Z,1008.07
2016-09-12T21:25:52.142Z,1008.08
2016-09-12T21:27:51.364Z,1008.09
2016-09-12T21:28:51.285Z,1008.1
2016-09-12T21:29:51.267Z,1008.11
2016-09-12T21:30:51.266Z,1008.06
2016-09-12T21:34:51.179Z,1008.12
2016-09-12T21:35:51.185Z,1008.11
2016-09-12T21:36:51.296Z,1008.08
2016-09-12T21:37:51.477Z,1008.08
2016-09-12T21:38:51.122Z,1008.08
2016-09-12T21:39:51.156Z,1008.1
2016-09-12T21:41:51.315Z,1008.08
2016-09-12T21:42:51.039Z,1008.08
2016-09-12T21:43:51.117Z,1008.07
2016-09-12T21:44:51.114Z,1008.07
2016-09-12T21:45:51.537Z,1008.03
2016-09-12T21:46:51.363Z,1008.04
2016-09-12T21:47:50.882Z,1008.07
2016-09-12T21:48:51.282Z,1008.04
2016-09-12T21:49:51.114Z,1008.05
2016-09-12T21:50:50.915Z,1008.04
2016-09-12T21:51:51.453Z,1008.03
2016-09-12T21:52:50.986Z,1008.01
2016-09-12T21:53:50.876Z,1008.01
2016-09-12T21:55:50.694Z,1008.07
2016-09-12T21:56:50.696Z,1008.08
2016-09-12T21:57:50.670Z,1008.04
2016-09-12T21:58:50.652Z,1008.05
2016-09-12T21:59:50.604Z,1008.05
2016-09-12T22:00:50.595Z,1008.05
2016-09-12T22:01:51.026Z,1008.06
2016-09-12T22:03:50.985Z,1008.06
2016-09-12T22:04:50.526Z,1008.07
2016-09-12T22:05:50.504Z,1008.09
2016-09-12T22:06:50.451Z,1008.08
2016-09-12T22:07:50.868Z,1008.1
2016-09-12T22:08:50.428Z,1008.07
2016-09-12T22:09:50.406Z,1008.07
2016-09-12T22:10:50.365Z,1008.06
2016-09-12T22:11:50.354Z,1008.06
2016-09-12T22:12:50.322Z,1008.07
2016-09-12T22:13:50.302Z,1008.06
2016-09-12T22:14:50.399Z,1008.04
2016-09-12T22:15:50.285Z,1008.06
2016-09-12T22:16:51.135Z,1008.06
2016-09-12T22:17:50.224Z,1008.03
2016-09-12T22:19:50.166Z,1008.02
2016-09-12T22:20:50.143Z,1008.06
2016-09-12T22:21:50.463Z,1008.04
2016-09-12T22:22:50.494Z,1008.06
2016-09-12T22:23:50.275Z,1008.05
2016-09-12T22:25:50.105Z,1008.08
2016-09-12T22:27:50.021Z,1008.03
2016-09-12T22:28:49.970Z,1008.01
2016-09-12T22:29:49.939Z,1008.03
2016-09-12T22:30:50.135Z,1008
2016-09-12T22:31:49.912Z,1008
2016-09-12T22:32:49.878Z,1008.01
2016-09-12T22:33:49.873Z,1007.99
2016-09-12T22:34:49.853Z,1008.03
2016-09-12T22:35:49.932Z,1008.02
2016-09-12T22:36:49.788Z,1008.01
2016-09-12T22:37:49.767Z,1008.02
2016-09-12T22:38:49.744Z,1008.01
2016-09-12T22:39:49.729Z,1007.98
2016-09-12T22:40:49.707Z,1008.01
2016-09-12T22:41:49.695Z,1008.02
2016-09-12T22:43:49.932Z,1008.01
2016-09-12T22:44:49.603Z,1008.04
2016-09-12T22:45:49.584Z,1008.02
2016-09-12T22:46:49.575Z,1008.03
2016-09-12T22:47:49.542Z,1008.05
2016-09-12T22:48:49.527Z,1007.99
2016-09-12T22:49:49.543Z,1008
2016-09-12T22:50:49.478Z,1008.02
2016-09-12T22:51:50.061Z,1007.99
2016-09-12T22:52:49.491Z,1007.97
2016-09-12T22:53:49.404Z,1007.98
2016-09-12T22:54:49.751Z,1007.96
2016-09-12T22:55:49.628Z,1007.99
2016-09-12T22:56:49.346Z,1007.94
2016-09-12T22:57:49.356Z,1007.97
2016-09-12T22:58:49.288Z,1007.97
2016-09-12T22:59:49.271Z,1007.95
2016-09-12T23:00:49.258Z,1008
2016-09-12T23:01:49.234Z,1007.94
2016-09-12T23:02:49.204Z,1007.95
2016-09-12T23:03:49.195Z,1007.96
2016-09-12T23:04:49.160Z,1007.99
2016-09-12T23:05:49.151Z,1007.98
2016-09-12T23:06:49.308Z,1008.01
2016-09-12T23:07:49.085Z,1008
2016-09-12T23:08:49.067Z,1008.01
2016-09-12T23:09:49.051Z,1008.01
2016-09-12T23:10:49.026Z,1008
2016-09-12T23:11:49.003Z,1008.02
2016-09-12T23:12:48.973Z,1008.02
2016-09-12T23:13:48.948Z,1008.03
2016-09-12T23:14:49.262Z,1008.05
2016-09-12T23:15:49.695Z,1008.02
2016-09-12T23:16:48.894Z,1007.98
2016-09-12T23:17:48.980Z,1007.99
2016-09-12T23:18:48.848Z,1008
2016-09-12T23:19:48.854Z,1008
2016-09-12T23:20:49.095Z,1007.99
2016-09-12T23:21:48.843Z,1007.99
2016-09-12T23:22:48.763Z,1007.97
2016-09-12T23:23:48.723Z,1008
2016-09-12T23:24:48.775Z,1008.01
2016-09-12T23:25:48.689Z,1008.02
2016-09-12T23:26:48.677Z,1007.99
2016-09-12T23:27:48.678Z,1008.03
2016-09-12T23:28:48.616Z,1007.99
2016-09-12T23:29:48.620Z,1008.04
2016-09-12T23:30:48.581Z,1008.02
2016-09-12T23:31:48.571Z,1008.05
2016-09-12T23:32:48.557Z,1008.02
2016-09-12T23:33:48.501Z,1008.03
2016-09-12T23:34:48.521Z,1008.05
2016-09-12T23:35:48.464Z,1008.01
2016-09-12T23:36:48.443Z,1008.07
2016-09-12T23:37:48.411Z,1008.06
2016-09-12T23:38:48.392Z,1008.05
2016-09-12T23:40:50.045Z,1008.05
2016-09-12T23:41:48.323Z,1008.06
2016-09-12T23:42:48.341Z,1008.07
2016-09-12T23:43:48.290Z,1008.06
2016-09-12T23:45:48.247Z,1008.03
2016-09-12T23:46:48.213Z,1008.03
2016-09-12T23:47:48.518Z,1008
2016-09-12T23:48:48.292Z,1008.01
2016-09-12T23:49:48.146Z,1008.02
2016-09-12T23:50:48.143Z,1008.02
2016-09-12T23:51:48.099Z,1008.01
2016-09-12T23:52:48.180Z,1007.99
2016-09-12T23:53:48.066Z,1007.98
2016-09-12T23:55:48.022Z,1007.98
2016-09-12T23:56:48.146Z,1007.98
2016-09-12T23:57:47.967Z,1007.96
2016-09-12T23:58:47.943Z,1007.96
2016-09-12T23:59:47.915Z,1007.93
